Little Red, Arkansas
Current Conditions -  °F | °C
As of 12:56 AM on Friday 31 Oct 2014 (Local Time) from KSRC Reporting Station
Clear Clear  
Wind Chill: 51°   Ceiling: Unl
Heat Index: 51°   Visibility: 10mi
Dew Point: 47°   Wind: 3mph
Humidity: 86%   Direction: 300°WNW
Pressure: 30.04"   Gusts: NA
Location:  35.4331°N, 91.7663°W
Report Text: KSRC 310556Z AUTO 30003KT 10SM CLR 11/08 A3004 RMK AO2 SLP178 T01060083 10128 20083 51002 TSNO
Loading
Personal Weather Stations






























Interactive Weather Map
Tropical Storm Tracking
New forecast layout! Learn more

10-Day Weather Forecast

Advertisements
Track Severe Weather on mobile